Aviation Digital Data Service (ADDS)

Output produced by TAFs form (0827 UTC 04 July 2015)
found at http://aviationweather.gov/adds/tafs/
 
KEGE 040524Z 0406/0506 00000KT P6SM VCTS SCT080CB BKN120 
     TEMPO 0406/0408 VRB15G25KT -TSRA 
     FM040900 VRB02KT P6SM BKN120 
     FM041900 25008G18KT P6SM SCT090 BKN200 
     FM050300 07008KT P6SM SCT120 AMD LTD TO CLD VIS AND WIND TIL 041300